sensor_id;sensor_type;location;lat;lon;timestamp;temperature;humidity
5346;DHT22;2695;49.444;11.054;2023-02-28T00:00:24;-0.50;99.90
5346;DHT22;2695;49.444;11.054;2023-02-28T00:02:53;-0.50;99.90
5346;DHT22;2695;49.444;11.054;2023-02-28T00:05:23;-0.50;99.90
5346;DHT22;2695;49.444;11.054;2023-02-28T00:07:53;-0.50;99.90
5346;DHT22;2695;49.444;11.054;2023-02-28T00:10:24;-0.50;99.90
5346;DHT22;2695;49.444;11.054;2023-02-28T00:12:56;-0.40;99.90
5346;DHT22;2695;49.444;11.054;2023-02-28T00:15:26;-0.40;99.90
5346;DHT22;2695;49.444;11.054;2023-02-28T00:17:55;-0.50;99.90
5346;DHT22;2695;49.444;11.054;2023-02-28T00:20:23;-0.50;99.90
5346;DHT22;2695;49.444;11.054;2023-02-28T00:22:52;-0.50;99.90
5346;DHT22;2695;49.444;11.054;2023-02-28T00:25:23;-0.50;99.90
5346;DHT22;2695;49.444;11.054;2023-02-28T00:27:51;-0.50;99.90
5346;DHT22;2695;49.444;11.054;2023-02-28T00:30:22;-0.50;99.90
5346;DHT22;2695;49.444;11.054;2023-02-28T00:32:51;-0.60;99.90
5346;DHT22;2695;49.444;11.054;2023-02-28T00:35:19;-0.40;99.90
5346;DHT22;2695;49.444;11.054;2023-02-28T00:37:48;-0.60;99.90
5346;DHT22;2695;49.444;11.054;2023-02-28T00:40:16;-0.60;99.90
5346;DHT22;2695;49.444;11.054;2023-02-28T00:42:44;-0.60;99.90
5346;DHT22;2695;49.444;11.054;2023-02-28T00:45:12;-0.60;99.90
5346;DHT22;2695;49.444;11.054;2023-02-28T00:47:42;-0.60;99.90
5346;DHT22;2695;49.444;11.054;2023-02-28T00:50:10;-0.60;99.90
5346;DHT22;2695;49.444;11.054;2023-02-28T00:52:38;-0.60;99.90
5346;DHT22;2695;49.444;11.054;2023-02-28T00:55:07;-0.60;99.90
5346;DHT22;2695;49.444;11.054;2023-02-28T00:57:35;-0.60;99.90
5346;DHT22;2695;49.444;11.054;2023-02-28T01:00:04;-0.60;99.90
5346;DHT22;2695;49.444;11.054;2023-02-28T01:02:33;-0.60;99.90
5346;DHT22;2695;49.444;11.054;2023-02-28T01:05:03;-0.60;99.90
5346;DHT22;2695;49.444;11.054;2023-02-28T01:07:31;-0.60;99.90
5346;DHT22;2695;49.444;11.054;2023-02-28T01:09:59;-0.70;99.90
5346;DHT22;2695;49.444;11.054;2023-02-28T01:12:27;-0.70;99.90
5346;DHT22;2695;49.444;11.054;2023-02-28T01:14:57;-0.70;99.90
5346;DHT22;2695;49.444;11.054;2023-02-28T01:17:25;-0.70;99.90
5346;DHT22;2695;49.444;11.054;2023-02-28T01:19:54;-0.70;99.90
5346;DHT22;2695;49.444;11.054;2023-02-28T01:22:24;-0.70;99.90
5346;DHT22;2695;49.444;11.054;2023-02-28T01:24:52;-0.70;99.90
5346;DHT22;2695;49.444;11.054;2023-02-28T01:27:20;-0.70;99.90
5346;DHT22;2695;49.444;11.054;2023-02-28T01:29:50;-0.80;99.90
5346;DHT22;2695;49.444;11.054;2023-02-28T01:32:18;-0.80;99.90
5346;DHT22;2695;49.444;11.054;2023-02-28T01:34:46;-0.70;99.90
5346;DHT22;2695;49.444;11.054;2023-02-28T01:37:14;-0.70;99.90
5346;DHT22;2695;49.444;11.054;2023-02-28T01:39:44;-0.70;99.90
5346;DHT22;2695;49.444;11.054;2023-02-28T01:42:12;-0.80;99.90
5346;DHT22;2695;49.444;11.054;2023-02-28T01:44:59;-1.30;99.90
5346;DHT22;2695;49.444;11.054;2023-02-28T01:47:30;-0.70;99.90
5346;DHT22;2695;49.444;11.054;2023-02-28T01:50:01;-0.80;99.90
5346;DHT22;2695;49.444;11.054;2023-02-28T01:52:30;-0.90;99.90
5346;DHT22;2695;49.444;11.054;2023-02-28T01:55:02;-0.80;99.90
5346;DHT22;2695;49.444;11.054;2023-02-28T01:57:35;-0.80;99.90
5346;DHT22;2695;49.444;11.054;2023-02-28T02:00:09;-0.90;99.90
5346;DHT22;2695;49.444;11.054;2023-02-28T02:02:42;-0.90;99.90
5346;DHT22;2695;49.444;11.054;2023-02-28T02:05:13;-0.90;99.90
5346;DHT22;2695;49.444;11.054;2023-02-28T02:07:44;-0.90;99.90
5346;DHT22;2695;49.444;11.054;2023-02-28T02:10:16;-0.90;99.90
5346;DHT22;2695;49.444;11.054;2023-02-28T02:13:01;-0.90;99.90
5346;DHT22;2695;49.444;11.054;2023-02-28T02:15:34;-0.90;99.90
5346;DHT22;2695;49.444;11.054;2023-02-28T02:18:12;-0.90;99.90
5346;DHT22;2695;49.444;11.054;2023-02-28T02:21:01;-1.00;99.90
5346;DHT22;2695;49.444;11.054;2023-02-28T02:24:01;-1.00;99.90
5346;DHT22;2695;49.444;11.054;2023-02-28T02:29:47;-1.00;99.90
5346;DHT22;2695;49.444;11.054;2023-02-28T02:32:58;-1.00;99.90
5346;DHT22;2695;49.444;11.054;2023-02-28T02:35:35;-1.00;99.90
5346;DHT22;2695;49.444;11.054;2023-02-28T02:38:09;-1.10;99.90
5346;DHT22;2695;49.444;11.054;2023-02-28T02:40:48;-1.10;99.90
5346;DHT22;2695;49.444;11.054;2023-02-28T02:43:22;-1.10;99.90
5346;DHT22;2695;49.444;11.054;2023-02-28T02:45:55;-1.10;99.90
5346;DHT22;2695;49.444;11.054;2023-02-28T02:48:27;-1.10;99.90
5346;DHT22;2695;49.444;11.054;2023-02-28T02:51:00;-1.10;99.90
5346;DHT22;2695;49.444;11.054;2023-02-28T02:53:32;-1.10;99.90
5346;DHT22;2695;49.444;11.054;2023-02-28T02:56:02;-1.10;99.90
5346;DHT22;2695;49.444;11.054;2023-02-28T02:58:33;-1.10;99.90
5346;DHT22;2695;49.444;11.054;2023-02-28T03:01:03;-1.10;99.90
5346;DHT22;2695;49.444;11.054;2023-02-28T03:03:33;-1.10;99.90
5346;DHT22;2695;49.444;11.054;2023-02-28T03:06:04;-1.20;99.90
5346;DHT22;2695;49.444;11.054;2023-02-28T03:08:35;-1.20;99.90
5346;DHT22;2695;49.444;11.054;2023-02-28T03:11:05;-1.20;99.90
5346;DHT22;2695;49.444;11.054;2023-02-28T03:13:46;-1.20;99.90
5346;DHT22;2695;49.444;11.054;2023-02-28T03:16:34;-1.20;99.90
5346;DHT22;2695;49.444;11.054;2023-02-28T03:19:18;-1.20;99.90
5346;DHT22;2695;49.444;11.054;2023-02-28T03:22:01;-1.20;99.90
5346;DHT22;2695;49.444;11.054;2023-02-28T03:24:33;-1.30;99.90
5346;DHT22;2695;49.444;11.054;2023-02-28T03:27:06;-1.30;99.90
5346;DHT22;2695;49.444;11.054;2023-02-28T03:29:37;-1.30;99.90
5346;DHT22;2695;49.444;11.054;2023-02-28T03:32:14;-1.30;99.90
5346;DHT22;2695;49.444;11.054;2023-02-28T03:34:52;-1.30;99.90
5346;DHT22;2695;49.444;11.054;2023-02-28T03:37:24;-1.30;99.90
5346;DHT22;2695;49.444;11.054;2023-02-28T03:39:56;-1.30;99.90
5346;DHT22;2695;49.444;11.054;2023-02-28T03:42:28;-1.30;99.90
5346;DHT22;2695;49.444;11.054;2023-02-28T03:44:59;-1.30;99.90
5346;DHT22;2695;49.444;11.054;2023-02-28T03:47:32;-1.30;99.90
5346;DHT22;2695;49.444;11.054;2023-02-28T03:50:06;-1.30;99.90
5346;DHT22;2695;49.444;11.054;2023-02-28T03:52:38;-1.30;99.90
5346;DHT22;2695;49.444;11.054;2023-02-28T03:55:12;-1.30;99.90
5346;DHT22;2695;49.444;11.054;2023-02-28T03:57:50;-1.30;99.90
5346;DHT22;2695;49.444;11.054;2023-02-28T04:00:25;-1.30;99.90
5346;DHT22;2695;49.444;11.054;2023-02-28T04:02:54;-1.30;99.90
5346;DHT22;2695;49.444;11.054;2023-02-28T04:05:23;-1.30;99.90
5346;DHT22;2695;49.444;11.054;2023-02-28T04:07:53;-1.30;99.90
5346;DHT22;2695;49.444;11.054;2023-02-28T04:10:21;-1.30;99.90
5346;DHT22;2695;49.444;11.054;2023-02-28T04:12:50;-1.20;99.90
5346;DHT22;2695;49.444;11.054;2023-02-28T04:15:18;-1.20;99.90
5346;DHT22;2695;49.444;11.054;2023-02-28T04:17:49;-1.20;99.90
5346;DHT22;2695;49.444;11.054;2023-02-28T04:20:17;-1.20;99.90
5346;DHT22;2695;49.444;11.054;2023-02-28T04:22:45;-1.20;99.90
5346;DHT22;2695;49.444;11.054;2023-02-28T04:25:15;-1.20;99.90
5346;DHT22;2695;49.444;11.054;2023-02-28T04:27:43;-1.20;99.90
5346;DHT22;2695;49.444;11.054;2023-02-28T04:30:12;-1.20;99.90
5346;DHT22;2695;49.444;11.054;2023-02-28T04:32:40;-1.20;99.90
5346;DHT22;2695;49.444;11.054;2023-02-28T04:35:08;-1.20;99.90
5346;DHT22;2695;49.444;11.054;2023-02-28T04:37:38;-1.20;99.90
5346;DHT22;2695;49.444;11.054;2023-02-28T04:40:07;-1.10;99.90
5346;DHT22;2695;49.444;11.054;2023-02-28T04:42:36;-1.10;99.90
5346;DHT22;2695;49.444;11.054;2023-02-28T04:45:06;-1.10;99.90
5346;DHT22;2695;49.444;11.054;2023-02-28T04:47:36;-1.10;99.90
5346;DHT22;2695;49.444;11.054;2023-02-28T04:50:05;-1.10;99.90
5346;DHT22;2695;49.444;11.054;2023-02-28T04:52:33;-1.10;99.90
5346;DHT22;2695;49.444;11.054;2023-02-28T04:55:01;-1.10;99.90
5346;DHT22;2695;49.444;11.054;2023-02-28T04:57:29;-1.00;99.90
5346;DHT22;2695;49.444;11.054;2023-02-28T04:59:59;-1.10;99.90
5346;DHT22;2695;49.444;11.054;2023-02-28T05:02:27;-1.20;99.90
5346;DHT22;2695;49.444;11.054;2023-02-28T05:04:55;-1.20;99.90
5346;DHT22;2695;49.444;11.054;2023-02-28T05:07:23;-1.10;99.90
5346;DHT22;2695;49.444;11.054;2023-02-28T05:09:51;-1.20;99.90
5346;DHT22;2695;49.444;11.054;2023-02-28T05:12:19;-1.10;99.90
5346;DHT22;2695;49.444;11.054;2023-02-28T05:14:47;-1.10;99.90
5346;DHT22;2695;49.444;11.054;2023-02-28T05:17:17;-1.20;99.90
5346;DHT22;2695;49.444;11.054;2023-02-28T05:19:45;-1.20;99.90
5346;DHT22;2695;49.444;11.054;2023-02-28T05:22:14;-1.20;99.90
5346;DHT22;2695;49.444;11.054;2023-02-28T05:24:43;-1.20;99.90
5346;DHT22;2695;49.444;11.054;2023-02-28T05:27:11;-1.20;99.90
5346;DHT22;2695;49.444;11.054;2023-02-28T05:29:39;-1.20;99.90
5346;DHT22;2695;49.444;11.054;2023-02-28T05:32:10;-1.20;99.90
5346;DHT22;2695;49.444;11.054;2023-02-28T05:34:40;-1.20;99.90
5346;DHT22;2695;49.444;11.054;2023-02-28T05:37:12;-1.20;99.90
5346;DHT22;2695;49.444;11.054;2023-02-28T05:39:40;-1.30;99.90
5346;DHT22;2695;49.444;11.054;2023-02-28T05:42:09;-1.30;99.90
5346;DHT22;2695;49.444;11.054;2023-02-28T05:44:37;-1.30;99.90
5346;DHT22;2695;49.444;11.054;2023-02-28T05:47:05;-1.30;99.90
5346;DHT22;2695;49.444;11.054;2023-02-28T05:49:33;-1.30;99.90
5346;DHT22;2695;49.444;11.054;2023-02-28T05:52:02;-1.30;99.90
5346;DHT22;2695;49.444;11.054;2023-02-28T05:54:31;-1.30;99.90
5346;DHT22;2695;49.444;11.054;2023-02-28T05:57:02;-1.30;99.90
5346;DHT22;2695;49.444;11.054;2023-02-28T05:59:38;-1.30;99.90
5346;DHT22;2695;49.444;11.054;2023-02-28T06:02:11;-1.30;99.90
5346;DHT22;2695;49.444;11.054;2023-02-28T06:04:41;-1.30;99.90
5346;DHT22;2695;49.444;11.054;2023-02-28T06:07:11;-1.20;99.90
5346;DHT22;2695;49.444;11.054;2023-02-28T06:09:40;-1.20;99.90
5346;DHT22;2695;49.444;11.054;2023-02-28T06:12:09;-1.20;99.90
5346;DHT22;2695;49.444;11.054;2023-02-28T06:14:37;-1.10;99.90
5346;DHT22;2695;49.444;11.054;2023-02-28T06:17:05;-0.80;99.90
5346;DHT22;2695;49.444;11.054;2023-02-28T06:19:33;-0.50;99.90
5346;DHT22;2695;49.444;11.054;2023-02-28T06:22:03;0.00;99.90
5346;DHT22;2695;49.444;11.054;2023-02-28T06:24:33;0.50;99.90
5346;DHT22;2695;49.444;11.054;2023-02-28T06:27:01;0.90;99.90
5346;DHT22;2695;49.444;11.054;2023-02-28T06:29:32;1.30;99.90
5346;DHT22;2695;49.444;11.054;2023-02-28T06:32:00;1.80;99.90
5346;DHT22;2695;49.444;11.054;2023-02-28T06:34:28;2.30;99.90
5346;DHT22;2695;49.444;11.054;2023-02-28T06:36:57;2.90;99.90
5346;DHT22;2695;49.444;11.054;2023-02-28T06:39:29;3.50;99.90
5346;DHT22;2695;49.444;11.054;2023-02-28T06:41:58;4.00;99.90
5346;DHT22;2695;49.444;11.054;2023-02-28T06:44:26;4.30;99.90
5346;DHT22;2695;49.444;11.054;2023-02-28T06:47:02;4.60;99.90
5346;DHT22;2695;49.444;11.054;2023-02-28T06:49:31;5.20;99.00
5346;DHT22;2695;49.444;11.054;2023-02-28T06:52:00;5.40;97.50
5346;DHT22;2695;49.444;11.054;2023-02-28T06:54:28;6.00;97.00
5346;DHT22;2695;49.444;11.054;2023-02-28T06:56:58;6.20;95.50
5346;DHT22;2695;49.444;11.054;2023-02-28T06:59:27;6.70;94.50
5346;DHT22;2695;49.444;11.054;2023-02-28T07:02:01;6.90;93.50
5346;DHT22;2695;49.444;11.054;2023-02-28T07:04:46;7.50;92.90
5346;DHT22;2695;49.444;11.054;2023-02-28T07:07:14;7.70;91.40
5346;DHT22;2695;49.444;11.054;2023-02-28T07:09:43;8.20;90.70
5346;DHT22;2695;49.444;11.054;2023-02-28T07:12:12;8.80;89.20
5346;DHT22;2695;49.444;11.054;2023-02-28T07:14:41;9.40;84.80
5346;DHT22;2695;49.444;11.054;2023-02-28T07:17:11;9.00;80.90
5346;DHT22;2695;49.444;11.054;2023-02-28T07:19:39;8.30;82.00
5346;DHT22;2695;49.444;11.054;2023-02-28T07:22:07;8.50;83.30
5346;DHT22;2695;49.444;11.054;2023-02-28T07:24:35;8.80;80.80
5346;DHT22;2695;49.444;11.054;2023-02-28T07:27:04;9.50;79.80
5346;DHT22;2695;49.444;11.054;2023-02-28T07:29:34;10.10;75.50
5346;DHT22;2695;49.444;11.054;2023-02-28T07:32:03;9.90;73.80
5346;DHT22;2695;49.444;11.054;2023-02-28T07:34:31;9.60;74.60
5346;DHT22;2695;49.444;11.054;2023-02-28T07:36:58;10.30;72.80
5346;DHT22;2695;49.444;11.054;2023-02-28T07:39:30;10.20;69.40
5346;DHT22;2695;49.444;11.054;2023-02-28T07:41:58;9.90;71.80
5346;DHT22;2695;49.444;11.054;2023-02-28T07:44:26;9.80;71.70
5346;DHT22;2695;49.444;11.054;2023-02-28T07:46:55;8.80;71.40
5346;DHT22;2695;49.444;11.054;2023-02-28T07:49:24;8.10;74.60
5346;DHT22;2695;49.444;11.054;2023-02-28T07:51:51;8.10;75.60
5346;DHT22;2695;49.444;11.054;2023-02-28T07:54:19;8.50;75.00
5346;DHT22;2695;49.444;11.054;2023-02-28T07:56:47;8.80;73.80
5346;DHT22;2695;49.444;11.054;2023-02-28T07:59:15;9.30;73.30
5346;DHT22;2695;49.444;11.054;2023-02-28T08:01:43;9.30;72.20
5346;DHT22;2695;49.444;11.054;2023-02-28T08:04:13;9.20;72.00
5346;DHT22;2695;49.444;11.054;2023-02-28T08:06:41;9.40;72.00
5346;DHT22;2695;49.444;11.054;2023-02-28T08:09:09;9.40;71.00
5346;DHT22;2695;49.444;11.054;2023-02-28T08:11:38;9.10;71.40
5346;DHT22;2695;49.444;11.054;2023-02-28T08:14:06;8.80;71.40
5346;DHT22;2695;49.444;11.054;2023-02-28T08:16:33;8.60;72.50
5346;DHT22;2695;49.444;11.054;2023-02-28T08:19:01;8.40;72.50
5346;DHT22;2695;49.444;11.054;2023-02-28T08:21:31;8.30;73.50
5346;DHT22;2695;49.444;11.054;2023-02-28T08:23:59;8.70;72.90
5346;DHT22;2695;49.444;11.054;2023-02-28T08:26:27;9.00;72.70
5346;DHT22;2695;49.444;11.054;2023-02-28T08:28:55;8.70;71.80
5346;DHT22;2695;49.444;11.054;2023-02-28T08:31:26;8.40;72.20
5346;DHT22;2695;49.444;11.054;2023-02-28T08:33:54;8.60;71.70
5346;DHT22;2695;49.444;11.054;2023-02-28T08:36:25;8.40;71.60
5346;DHT22;2695;49.444;11.054;2023-02-28T08:38:57;8.10;71.60
5346;DHT22;2695;49.444;11.054;2023-02-28T08:41:26;7.60;73.50
5346;DHT22;2695;49.444;11.054;2023-02-28T08:43:54;8.00;73.30
5346;DHT22;2695;49.444;11.054;2023-02-28T08:46:23;8.00;72.60
5346;DHT22;2695;49.444;11.054;2023-02-28T08:48:52;8.10;73.00
5346;DHT22;2695;49.444;11.054;2023-02-28T08:51:21;8.80;71.50
5346;DHT22;2695;49.444;11.054;2023-02-28T08:53:55;9.30;71.00
5346;DHT22;2695;49.444;11.054;2023-02-28T08:56:26;9.80;67.80
5346;DHT22;2695;49.444;11.054;2023-02-28T08:58:55;10.00;65.90
5346;DHT22;2695;49.444;11.054;2023-02-28T09:01:25;10.00;65.20
5346;DHT22;2695;49.444;11.054;2023-02-28T09:03:56;9.40;66.30
5346;DHT22;2695;49.444;11.054;2023-02-28T09:06:25;9.30;68.10
5346;DHT22;2695;49.444;11.054;2023-02-28T09:08:57;9.50;66.50
5346;DHT22;2695;49.444;11.054;2023-02-28T09:11:28;9.00;67.60
5346;DHT22;2695;49.444;11.054;2023-02-28T09:13:57;9.60;67.80
5346;DHT22;2695;49.444;11.054;2023-02-28T09:16:26;10.10;64.50
5346;DHT22;2695;49.444;11.054;2023-02-28T09:18:54;9.70;65.30
5346;DHT22;2695;49.444;11.054;2023-02-28T09:21:22;10.20;64.40
5346;DHT22;2695;49.444;11.054;2023-02-28T09:23:50;9.70;64.50
5346;DHT22;2695;49.444;11.054;2023-02-28T09:26:22;8.90;66.30
5346;DHT22;2695;49.444;11.054;2023-02-28T09:28:51;10.00;64.80
5346;DHT22;2695;49.444;11.054;2023-02-28T09:31:22;10.40;61.50
5346;DHT22;2695;49.444;11.054;2023-02-28T09:33:51;11.10;60.30
5346;DHT22;2695;49.444;11.054;2023-02-28T09:36:21;11.20;59.60
5346;DHT22;2695;49.444;11.054;2023-02-28T09:39:00;11.50;59.30
5346;DHT22;2695;49.444;11.054;2023-02-28T09:41:36;12.00;57.70
5346;DHT22;2695;49.444;11.054;2023-02-28T09:44:07;12.00;56.70
5346;DHT22;2695;49.444;11.054;2023-02-28T09:46:43;11.20;57.10
5346;DHT22;2695;49.444;11.054;2023-02-28T09:49:14;10.60;59.00
5346;DHT22;2695;49.444;11.054;2023-02-28T09:51:49;10.40;58.50
5346;DHT22;2695;49.444;11.054;2023-02-28T09:54:20;10.40;58.70
5346;DHT22;2695;49.444;11.054;2023-02-28T09:56:52;10.30;58.30
5346;DHT22;2695;49.444;11.054;2023-02-28T09:59:34;10.70;58.10
5346;DHT22;2695;49.444;11.054;2023-02-28T10:02:15;11.30;57.50
5346;DHT22;2695;49.444;11.054;2023-02-28T10:04:48;11.80;56.40
5346;DHT22;2695;49.444;11.054;2023-02-28T10:07:26;11.60;55.70
5346;DHT22;2695;49.444;11.054;2023-02-28T10:09:59;12.20;55.30
5346;DHT22;2695;49.444;11.054;2023-02-28T10:12:33;12.50;54.10
5346;DHT22;2695;49.444;11.054;2023-02-28T10:15:01;12.20;53.50
5346;DHT22;2695;49.444;11.054;2023-02-28T10:17:37;11.40;53.90
5346;DHT22;2695;49.444;11.054;2023-02-28T10:20:22;10.30;54.20
5346;DHT22;2695;49.444;11.054;2023-02-28T10:23:00;9.60;57.80
5346;DHT22;2695;49.444;11.054;2023-02-28T10:25:35;9.70;57.60
5346;DHT22;2695;49.444;11.054;2023-02-28T10:28:10;10.00;57.10
5346;DHT22;2695;49.444;11.054;2023-02-28T10:30:41;10.60;55.70
5346;DHT22;2695;49.444;11.054;2023-02-28T10:33:22;10.90;55.40
5346;DHT22;2695;49.444;11.054;2023-02-28T10:35:51;11.20;54.10
5346;DHT22;2695;49.444;11.054;2023-02-28T10:38:22;11.40;53.60
5346;DHT22;2695;49.444;11.054;2023-02-28T10:40:51;11.30;53.40
5346;DHT22;2695;49.444;11.054;2023-02-28T10:43:22;11.10;54.00
5346;DHT22;2695;49.444;11.054;2023-02-28T10:45:57;11.20;53.50
5346;DHT22;2695;49.444;11.054;2023-02-28T10:48:30;11.40;52.80
5346;DHT22;2695;49.444;11.054;2023-02-28T10:51:00;11.10;52.50
5346;DHT22;2695;49.444;11.054;2023-02-28T10:53:32;10.80;52.80
5346;DHT22;2695;49.444;11.054;2023-02-28T10:56:22;10.80;53.40
5346;DHT22;2695;49.444;11.054;2023-02-28T10:58:55;11.00;54.00
5346;DHT22;2695;49.444;11.054;2023-02-28T11:01:27;11.10;52.60
5346;DHT22;2695;49.444;11.054;2023-02-28T11:04:02;11.10;52.20
5346;DHT22;2695;49.444;11.054;2023-02-28T11:06:32;11.00;52.40
5346;DHT22;2695;49.444;11.054;2023-02-28T11:09:03;11.10;52.50
5346;DHT22;2695;49.444;11.054;2023-02-28T11:11:43;11.30;51.70
5346;DHT22;2695;49.444;11.054;2023-02-28T11:14:19;11.20;51.80
5346;DHT22;2695;49.444;11.054;2023-02-28T11:16:49;11.00;52.50
5346;DHT22;2695;49.444;11.054;2023-02-28T11:19:22;11.00;52.50
5346;DHT22;2695;49.444;11.054;2023-02-28T11:21:54;10.90;52.80
5346;DHT22;2695;49.444;11.054;2023-02-28T11:24:26;10.80;52.50
5346;DHT22;2695;49.444;11.054;2023-02-28T11:26:56;10.80;52.40
5346;DHT22;2695;49.444;11.054;2023-02-28T11:29:27;10.60;52.60
5346;DHT22;2695;49.444;11.054;2023-02-28T11:32:18;10.40;52.90
5346;DHT22;2695;49.444;11.054;2023-02-28T11:35:01;10.50;53.10
5346;DHT22;2695;49.444;11.054;2023-02-28T11:37:31;10.50;53.60
5346;DHT22;2695;49.444;11.054;2023-02-28T11:39:59;10.30;52.90
5346;DHT22;2695;49.444;11.054;2023-02-28T11:42:46;10.00;53.40
5346;DHT22;2695;49.444;11.054;2023-02-28T11:45:36;10.30;54.00
5346;DHT22;2695;49.444;11.054;2023-02-28T11:48:13;10.30;52.80
5346;DHT22;2695;49.444;11.054;2023-02-28T11:51:03;10.20;53.60
5346;DHT22;2695;49.444;11.054;2023-02-28T11:53:48;10.10;53.40
5346;DHT22;2695;49.444;11.054;2023-02-28T11:56:24;10.10;54.10
5346;DHT22;2695;49.444;11.054;2023-02-28T11:59:03;9.80;55.00
5346;DHT22;2695;49.444;11.054;2023-02-28T12:01:51;10.00;54.60
5346;DHT22;2695;49.444;11.054;2023-02-28T12:04:29;10.10;54.60
5346;DHT22;2695;49.444;11.054;2023-02-28T12:07:06;9.80;54.60
5346;DHT22;2695;49.444;11.054;2023-02-28T12:09:47;9.70;55.80
5346;DHT22;2695;49.444;11.054;2023-02-28T12:12:28;9.50;55.70
5346;DHT22;2695;49.444;11.054;2023-02-28T12:15:13;9.30;56.50
5346;DHT22;2695;49.444;11.054;2023-02-28T12:17:55;9.30;56.30
5346;DHT22;2695;49.444;11.054;2023-02-28T12:20:33;9.10;56.90
5346;DHT22;2695;49.444;11.054;2023-02-28T12:23:18;9.50;57.00
5346;DHT22;2695;49.444;11.054;2023-02-28T12:26:07;9.30;56.40
5346;DHT22;2695;49.444;11.054;2023-02-28T12:28:44;9.00;57.00
5346;DHT22;2695;49.444;11.054;2023-02-28T12:31:19;8.30;57.70
5346;DHT22;2695;49.444;11.054;2023-02-28T12:33:53;7.80;59.00
5346;DHT22;2695;49.444;11.054;2023-02-28T12:36:23;7.50;60.30
5346;DHT22;2695;49.444;11.054;2023-02-28T12:38:56;7.70;61.00
5346;DHT22;2695;49.444;11.054;2023-02-28T12:41:34;7.20;61.70
5346;DHT22;2695;49.444;11.054;2023-02-28T12:44:09;7.20;61.80
5346;DHT22;2695;49.444;11.054;2023-02-28T12:46:43;7.20;62.10
5346;DHT22;2695;49.444;11.054;2023-02-28T12:49:17;7.30;62.30
5346;DHT22;2695;49.444;11.054;2023-02-28T12:51:47;7.50;60.90
5346;DHT22;2695;49.444;11.054;2023-02-28T12:54:22;7.30;60.50
5346;DHT22;2695;49.444;11.054;2023-02-28T12:56:58;7.00;61.30
5346;DHT22;2695;49.444;11.054;2023-02-28T12:59:36;7.00;61.40
5346;DHT22;2695;49.444;11.054;2023-02-28T13:02:28;7.00;61.90
5346;DHT22;2695;49.444;11.054;2023-02-28T13:09:01;6.70;62.60
5346;DHT22;2695;49.444;11.054;2023-02-28T13:11:32;6.70;62.50
5346;DHT22;2695;49.444;11.054;2023-02-28T13:14:03;6.70;62.80
5346;DHT22;2695;49.444;11.054;2023-02-28T13:16:57;6.70;62.80
5346;DHT22;2695;49.444;11.054;2023-02-28T13:19:27;6.40;63.60
5346;DHT22;2695;49.444;11.054;2023-02-28T13:21:58;6.50;64.00
5346;DHT22;2695;49.444;11.054;2023-02-28T13:24:45;6.50;64.40
5346;DHT22;2695;49.444;11.054;2023-02-28T13:27:33;6.50;64.40
5346;DHT22;2695;49.444;11.054;2023-02-28T13:33:25;6.40;64.80
5346;DHT22;2695;49.444;11.054;2023-02-28T13:36:23;6.50;65.70
5346;DHT22;2695;49.444;11.054;2023-02-28T13:38:54;6.60;65.80
5346;DHT22;2695;49.444;11.054;2023-02-28T13:41:47;6.60;65.40
5346;DHT22;2695;49.444;11.054;2023-02-28T13:44:18;6.60;65.70
5346;DHT22;2695;49.444;11.054;2023-02-28T13:47:21;6.50;66.20
5346;DHT22;2695;49.444;11.054;2023-02-28T13:49:52;6.40;67.10
5346;DHT22;2695;49.444;11.054;2023-02-28T13:52:22;6.40;67.40
5346;DHT22;2695;49.444;11.054;2023-02-28T13:55:12;6.40;67.00
5346;DHT22;2695;49.444;11.054;2023-02-28T13:57:53;6.40;67.20
5346;DHT22;2695;49.444;11.054;2023-02-28T14:00:34;6.40;67.00
5346;DHT22;2695;49.444;11.054;2023-02-28T14:03:28;6.30;67.80
5346;DHT22;2695;49.444;11.054;2023-02-28T14:06:21;6.20;67.70
5346;DHT22;2695;49.444;11.054;2023-02-28T14:08:58;6.30;68.30
5346;DHT22;2695;49.444;11.054;2023-02-28T14:11:31;6.20;68.20
5346;DHT22;2695;49.444;11.054;2023-02-28T14:14:00;6.20;68.40
5346;DHT22;2695;49.444;11.054;2023-02-28T14:16:36;6.30;68.70
5346;DHT22;2695;49.444;11.054;2023-02-28T14:19:12;6.20;68.50
5346;DHT22;2695;49.444;11.054;2023-02-28T14:21:50;6.10;69.10
5346;DHT22;2695;49.444;11.054;2023-02-28T14:24:34;6.00;69.30
5346;DHT22;2695;49.444;11.054;2023-02-28T14:27:25;6.00;70.50
5346;DHT22;2695;49.444;11.054;2023-02-28T14:30:37;6.00;70.30
5346;DHT22;2695;49.444;11.054;2023-02-28T14:33:18;6.10;70.10
5346;DHT22;2695;49.444;11.054;2023-02-28T14:35:59;6.30;69.70
5346;DHT22;2695;49.444;11.054;2023-02-28T14:38:30;6.30;69.80
5346;DHT22;2695;49.444;11.054;2023-02-28T14:41:04;6.30;69.30
5346;DHT22;2695;49.444;11.054;2023-02-28T14:43:34;6.10;69.40
5346;DHT22;2695;49.444;11.054;2023-02-28T14:46:04;6.00;69.80
5346;DHT22;2695;49.444;11.054;2023-02-28T14:48:36;5.90;70.30
5346;DHT22;2695;49.444;11.054;2023-02-28T14:51:05;5.90;70.80
5346;DHT22;2695;49.444;11.054;2023-02-28T14:53:36;5.80;70.40
5346;DHT22;2695;49.444;11.054;2023-02-28T14:56:17;5.70;70.80
5346;DHT22;2695;49.444;11.054;2023-02-28T14:58:52;5.70;71.40
5346;DHT22;2695;49.444;11.054;2023-02-28T15:01:22;5.70;71.00
5346;DHT22;2695;49.444;11.054;2023-02-28T15:04:01;5.80;71.60
5346;DHT22;2695;49.444;11.054;2023-02-28T15:06:31;5.80;71.30
5346;DHT22;2695;49.444;11.054;2023-02-28T15:09:16;5.80;71.70
5346;DHT22;2695;49.444;11.054;2023-02-28T15:11:47;5.80;71.70
5346;DHT22;2695;49.444;11.054;2023-02-28T15:14:20;5.90;72.30
5346;DHT22;2695;49.444;11.054;2023-02-28T15:16:55;5.90;72.20
5346;DHT22;2695;49.444;11.054;2023-02-28T15:19:26;6.00;72.00
5346;DHT22;2695;49.444;11.054;2023-02-28T15:21:58;6.00;71.90
5346;DHT22;2695;49.444;11.054;2023-02-28T15:24:35;5.90;72.00
5346;DHT22;2695;49.444;11.054;2023-02-28T15:27:07;5.80;72.80
5346;DHT22;2695;49.444;11.054;2023-02-28T15:29:45;5.90;72.80
5346;DHT22;2695;49.444;11.054;2023-02-28T15:32:27;5.90;72.70
5346;DHT22;2695;49.444;11.054;2023-02-28T15:34:57;6.00;72.70
5346;DHT22;2695;49.444;11.054;2023-02-28T15:37:38;5.90;72.60
5346;DHT22;2695;49.444;11.054;2023-02-28T15:40:16;5.80;73.10
5346;DHT22;2695;49.444;11.054;2023-02-28T15:43:04;5.80;73.40
5346;DHT22;2695;49.444;11.054;2023-02-28T15:45:37;5.90;73.90
5346;DHT22;2695;49.444;11.054;2023-02-28T15:48:18;5.80;73.10
5346;DHT22;2695;49.444;11.054;2023-02-28T15:50:49;5.70;73.50
5346;DHT22;2695;49.444;11.054;2023-02-28T15:53:21;5.60;73.60
5346;DHT22;2695;49.444;11.054;2023-02-28T15:55:55;5.50;74.00
5346;DHT22;2695;49.444;11.054;2023-02-28T15:58:25;5.50;74.40
5346;DHT22;2695;49.444;11.054;2023-02-28T16:01:08;6.40;75.70
5346;DHT22;2695;49.444;11.054;2023-02-28T16:03:46;5.40;74.80
5346;DHT22;2695;49.444;11.054;2023-02-28T16:06:37;5.40;74.90
5346;DHT22;2695;49.444;11.054;2023-02-28T16:09:08;5.30;74.90
5346;DHT22;2695;49.444;11.054;2023-02-28T16:11:39;5.10;75.20
5346;DHT22;2695;49.444;11.054;2023-02-28T16:14:16;5.10;75.70
5346;DHT22;2695;49.444;11.054;2023-02-28T16:16:49;5.00;75.90
5346;DHT22;2695;49.444;11.054;2023-02-28T16:19:18;4.90;76.30
5346;DHT22;2695;49.444;11.054;2023-02-28T16:21:47;4.90;76.80
5346;DHT22;2695;49.444;11.054;2023-02-28T16:24:15;4.80;76.90
5346;DHT22;2695;49.444;11.054;2023-02-28T16:26:46;4.80;76.90
5346;DHT22;2695;49.444;11.054;2023-02-28T16:29:19;4.80;77.20
5346;DHT22;2695;49.444;11.054;2023-02-28T16:31:50;4.70;77.20
5346;DHT22;2695;49.444;11.054;2023-02-28T16:34:18;4.70;77.40
5346;DHT22;2695;49.444;11.054;2023-02-28T16:36:47;4.60;77.70
5346;DHT22;2695;49.444;11.054;2023-02-28T16:39:15;4.60;78.00